Airport View

Enter AWOS ICAO identifier for current METAR.

ex. KFNL

K2G9 250215Z AUTO 15007KT 10SM OVC003 15/13 A3018 RMK AO2

25 May 2020 02:51

Frequency: 133.8

Phone: 814-443-2114

Other Area AWOS: KJST - KLBE - KHMZ - KCBE

TAF AMD KJST 250148Z 2502/2524 14008KT 4SM BR OVC003 FM251100 17004KT 4SM BR OVC007 FM251400 16005KT P6SM BKN015 FM251800 14007KT P6SM SCT040 BKN250